createdAt,value
2017-12-14T00:00:30.354Z,22.30
2017-12-14T00:01:30.397Z,21.50
2017-12-14T00:02:30.318Z,20.60
2017-12-14T00:03:30.313Z,20.10
2017-12-14T00:04:30.323Z,20.40
2017-12-14T00:05:30.321Z,22.60
2017-12-14T00:06:30.298Z,21.50
2017-12-14T00:07:30.410Z,25.10
2017-12-14T00:08:30.304Z,21.10
2017-12-14T00:09:30.278Z,20.60
2017-12-14T00:10:30.291Z,21.60
2017-12-14T00:11:30.267Z,21.50
2017-12-14T00:12:30.328Z,22.20
2017-12-14T00:13:30.248Z,22.10
2017-12-14T00:14:30.247Z,24.10
2017-12-14T00:15:30.253Z,22.90
2017-12-14T00:16:30.257Z,23.50
2017-12-14T00:17:30.245Z,24.60
2017-12-14T00:18:30.216Z,26.20
2017-12-14T00:19:30.214Z,26.20
2017-12-14T00:20:30.204Z,30.10
2017-12-14T00:21:30.206Z,27.70
2017-12-14T00:22:30.209Z,32.20
2017-12-14T00:23:30.209Z,35.30
2017-12-14T00:24:30.185Z,37.60
2017-12-14T00:25:30.181Z,36.00
2017-12-14T00:26:30.171Z,41.10
2017-12-14T00:27:30.183Z,41.30
2017-12-14T00:28:30.154Z,43.60
2017-12-14T00:29:30.171Z,39.40
2017-12-14T00:30:30.151Z,44.60
2017-12-14T00:31:30.203Z,47.40
2017-12-14T00:32:30.139Z,47.10
2017-12-14T00:33:30.157Z,42.70
2017-12-14T00:34:30.134Z,42.40
2017-12-14T00:35:30.129Z,44.10
2017-12-14T00:36:30.114Z,49.50
2017-12-14T00:37:30.207Z,44.00
2017-12-14T00:38:30.109Z,44.10
2017-12-14T00:39:30.126Z,47.50
2017-12-14T00:40:30.090Z,49.00
2017-12-14T00:41:30.081Z,45.70
2017-12-14T00:42:30.093Z,49.10
2017-12-14T00:43:30.137Z,45.40
2017-12-14T00:44:30.072Z,51.30
2017-12-14T00:45:30.056Z,48.20
2017-12-14T00:46:30.069Z,49.00
2017-12-14T00:47:30.063Z,48.60
2017-12-14T00:48:30.038Z,49.50
2017-12-14T00:49:30.246Z,48.70
2017-12-14T00:50:30.026Z,50.50
2017-12-14T00:51:30.037Z,49.80
2017-12-14T00:52:30.015Z,47.10
2017-12-14T00:53:29.997Z,49.70
2017-12-14T00:54:30.001Z,48.70
2017-12-14T00:55:30.013Z,52.60
2017-12-14T00:56:29.980Z,52.60
2017-12-14T00:57:29.981Z,52.50
2017-12-14T00:58:29.965Z,52.30
2017-12-14T00:59:29.987Z,48.40
2017-12-14T01:00:29.965Z,51.70
2017-12-14T01:01:29.965Z,45.50
2017-12-14T01:02:29.949Z,49.70
2017-12-14T01:03:29.953Z,49.00
2017-12-14T01:04:29.939Z,46.30
2017-12-14T01:05:29.949Z,43.90
2017-12-14T01:06:29.943Z,43.90
2017-12-14T01:07:29.910Z,45.40
2017-12-14T01:08:29.913Z,40.70
2017-12-14T01:09:29.906Z,33.70
2017-12-14T01:10:29.918Z,30.20
2017-12-14T01:11:29.912Z,28.70
2017-12-14T01:12:29.897Z,31.10
2017-12-14T01:13:29.871Z,28.00
2017-12-14T01:14:29.893Z,30.50
2017-12-14T01:15:29.885Z,32.10
2017-12-14T01:16:29.862Z,32.50
2017-12-14T01:17:29.853Z,32.20
2017-12-14T01:18:29.847Z,31.00
2017-12-14T01:19:29.847Z,34.60
2017-12-14T01:20:29.836Z,30.20
2017-12-14T01:21:29.837Z,33.90
2017-12-14T01:22:29.822Z,30.60
2017-12-14T01:23:29.834Z,29.60
2017-12-14T01:24:29.812Z,32.30
2017-12-14T01:25:29.851Z,32.20
2017-12-14T01:26:29.795Z,30.20
2017-12-14T01:27:29.798Z,33.10
2017-12-14T01:28:29.782Z,34.20
2017-12-14T01:29:29.794Z,31.70
2017-12-14T01:30:29.769Z,31.80
2017-12-14T01:31:29.822Z,32.70
2017-12-14T01:32:29.748Z,36.40
2017-12-14T01:33:29.767Z,30.40
2017-12-14T01:34:29.768Z,39.40
2017-12-14T01:35:29.737Z,36.00
2017-12-14T01:36:29.739Z,33.50
2017-12-14T01:37:29.714Z,34.40
2017-12-14T01:38:29.726Z,36.70
2017-12-14T01:39:29.729Z,37.20
2017-12-14T01:40:29.704Z,37.80
2017-12-14T01:41:29.706Z,40.20
2017-12-14T01:42:29.690Z,39.20
2017-12-14T01:43:29.676Z,37.10
2017-12-14T01:44:29.670Z,38.40
2017-12-14T01:45:29.690Z,34.70
2017-12-14T01:46:29.664Z,34.00
2017-12-14T01:47:29.683Z,32.10
2017-12-14T01:48:29.671Z,33.90
2017-12-14T01:49:29.664Z,32.40
2017-12-14T01:50:29.643Z,32.10
2017-12-14T01:51:29.651Z,33.40
2017-12-14T01:52:29.646Z,33.00
2017-12-14T01:53:29.644Z,33.10
2017-12-14T01:54:29.633Z,30.40
2017-12-14T01:55:29.626Z,35.60
2017-12-14T01:56:29.611Z,33.40
2017-12-14T01:57:29.613Z,36.60
2017-12-14T01:58:29.607Z,32.10
2017-12-14T01:59:29.600Z,33.20
2017-12-14T02:00:29.595Z,33.80
2017-12-14T02:01:29.588Z,34.80
2017-12-14T02:02:29.582Z,32.50
2017-12-14T02:03:29.576Z,34.60
2017-12-14T02:04:29.560Z,32.80
2017-12-14T02:05:29.562Z,32.80
2017-12-14T02:06:29.556Z,34.60
2017-12-14T02:07:29.550Z,39.30
2017-12-14T02:08:29.544Z,34.80
2017-12-14T02:09:29.536Z,34.80
2017-12-14T02:10:29.530Z,35.70
2017-12-14T02:11:29.524Z,35.70
2017-12-14T02:12:29.518Z,34.30
2017-12-14T02:13:29.518Z,37.60
2017-12-14T02:14:29.505Z,39.70
2017-12-14T02:15:29.499Z,32.60
2017-12-14T02:16:29.492Z,35.90
2017-12-14T02:17:29.476Z,37.10
2017-12-14T02:18:29.470Z,37.30
2017-12-14T02:19:29.473Z,34.90
2017-12-14T02:20:29.467Z,38.70
2017-12-14T02:21:29.450Z,35.80
2017-12-14T02:22:29.454Z,35.00
2017-12-14T02:23:29.438Z,33.20
2017-12-14T02:24:29.427Z,36.00
2017-12-14T02:25:29.433Z,36.10
2017-12-14T02:26:29.428Z,35.50
2017-12-14T02:27:29.393Z,36.70
2017-12-14T02:28:29.415Z,34.80
2017-12-14T02:29:29.381Z,34.80
2017-12-14T02:30:29.402Z,32.90
2017-12-14T02:31:29.396Z,36.70
2017-12-14T02:32:29.372Z,35.30
2017-12-14T02:33:29.365Z,34.50
2017-12-14T02:34:29.367Z,36.60
2017-12-14T02:35:29.370Z,35.50
2017-12-14T02:36:29.336Z,33.40
2017-12-14T02:37:29.357Z,38.20
2017-12-14T02:38:29.341Z,37.70
2017-12-14T02:39:29.336Z,36.10
2017-12-14T02:40:29.321Z,33.20
2017-12-14T02:41:29.318Z,32.80
2017-12-14T02:42:29.298Z,35.30
2017-12-14T02:43:29.292Z,34.30
2017-12-14T02:44:29.314Z,35.90
2017-12-14T02:45:29.297Z,34.50
2017-12-14T02:46:29.274Z,33.20
2017-12-14T02:47:29.294Z,34.10
2017-12-14T02:48:29.260Z,35.70
2017-12-14T02:49:29.263Z,33.00
2017-12-14T02:50:29.274Z,36.00
2017-12-14T02:51:29.251Z,39.10
2017-12-14T02:52:29.262Z,42.20
2017-12-14T02:53:29.237Z,33.20
2017-12-14T02:54:29.231Z,32.00
2017-12-14T02:55:29.233Z,32.70
2017-12-14T02:56:29.241Z,31.20
2017-12-14T02:57:29.212Z,31.70
2017-12-14T02:58:29.223Z,33.50
2017-12-14T02:59:29.197Z,31.50
2017-12-14T03:00:29.193Z,37.20
2017-12-14T03:01:29.193Z,32.70
2017-12-14T03:02:29.179Z,30.40
2017-12-14T03:03:29.190Z,31.30
2017-12-14T03:04:29.167Z,33.00
2017-12-14T03:05:29.150Z,33.10
2017-12-14T03:06:29.160Z,32.10
2017-12-14T03:07:29.138Z,30.90
2017-12-14T03:08:29.132Z,31.90
2017-12-14T03:09:29.151Z,30.60
2017-12-14T03:10:29.128Z,29.90
2017-12-14T03:11:29.138Z,29.50
2017-12-14T03:12:29.135Z,31.60
2017-12-14T03:13:29.108Z,30.50
2017-12-14T03:14:29.119Z,29.90
2017-12-14T03:15:29.103Z,34.30
2017-12-14T03:16:29.091Z,33.80
2017-12-14T03:17:29.100Z,30.90
2017-12-14T03:18:29.084Z,30.20
2017-12-14T03:19:29.187Z,31.00
2017-12-14T03:20:29.081Z,29.70
2017-12-14T03:21:29.073Z,29.60
2017-12-14T03:22:29.058Z,31.40
2017-12-14T03:23:29.065Z,31.20
2017-12-14T03:24:29.055Z,32.10
2017-12-14T03:25:29.029Z,31.40
2017-12-14T03:26:29.025Z,31.20
2017-12-14T03:27:29.017Z,32.20
2017-12-14T03:28:29.013Z,32.60
2017-12-14T03:29:29.004Z,37.50
2017-12-14T03:30:29.017Z,33.90
2017-12-14T03:31:29.110Z,33.60
2017-12-14T03:32:28.988Z,32.50
2017-12-14T03:33:28.997Z,30.90
2017-12-14T03:34:28.991Z,33.50
2017-12-14T03:35:28.977Z,33.80
2017-12-14T03:36:28.979Z,30.50
2017-12-14T03:37:28.974Z,30.50
2017-12-14T03:38:28.966Z,30.10
2017-12-14T03:39:28.959Z,30.00
2017-12-14T03:40:28.944Z,31.40
2017-12-14T03:41:28.951Z,33.10
2017-12-14T03:42:28.930Z,32.50
2017-12-14T03:43:29.121Z,33.10
2017-12-14T03:44:28.928Z,31.50
2017-12-14T03:45:28.920Z,31.10
2017-12-14T03:46:28.914Z,31.90
2017-12-14T03:47:28.908Z,28.20
2017-12-14T03:48:28.901Z,30.90
2017-12-14T03:49:28.985Z,29.10
2017-12-14T03:50:28.888Z,33.20
2017-12-14T03:51:28.882Z,33.50
2017-12-14T03:52:28.876Z,31.20
2017-12-14T03:53:28.869Z,32.90
2017-12-14T03:54:28.865Z,28.10
2017-12-14T03:55:28.856Z,29.90
2017-12-14T03:56:28.846Z,26.80
2017-12-14T03:57:28.839Z,31.20
2017-12-14T03:58:28.832Z,26.60
2017-12-14T03:59:28.830Z,28.20
2017-12-14T04:00:28.825Z,30.70
2017-12-14T04:01:28.818Z,27.30
2017-12-14T04:02:28.812Z,27.60
2017-12-14T04:03:28.805Z,27.00
2017-12-14T04:04:28.800Z,25.10
2017-12-14T04:05:28.788Z,25.90
2017-12-14T04:06:28.787Z,29.50
2017-12-14T04:07:28.758Z,30.30
2017-12-14T04:08:28.774Z,27.60
2017-12-14T04:09:28.767Z,24.60
2017-12-14T04:10:28.757Z,24.80
2017-12-14T04:11:28.738Z,26.40
2017-12-14T04:12:28.749Z,23.50
2017-12-14T04:13:28.726Z,24.80
2017-12-14T04:14:28.733Z,25.30
2017-12-14T04:15:28.730Z,23.10
2017-12-14T04:16:28.705Z,22.90
2017-12-14T04:17:28.719Z,22.20
2017-12-14T04:18:28.711Z,25.40
2017-12-14T04:19:28.689Z,23.20
2017-12-14T04:20:28.688Z,22.90
2017-12-14T04:21:28.676Z,23.50
2017-12-14T04:22:28.682Z,25.70
2017-12-14T04:23:28.663Z,20.40
2017-12-14T04:24:28.655Z,22.20
2017-12-14T04:25:28.646Z,23.00
2017-12-14T04:26:28.662Z,19.50
2017-12-14T04:27:28.638Z,21.50
2017-12-14T04:28:28.634Z,20.00
2017-12-14T04:29:28.643Z,19.70
2017-12-14T04:30:28.632Z,19.30
2017-12-14T04:31:28.703Z,23.20
2017-12-14T04:32:28.603Z,20.00
2017-12-14T04:33:28.591Z,21.90
2017-12-14T04:34:28.603Z,20.70
2017-12-14T04:35:28.583Z,22.10
2017-12-14T04:36:28.596Z,19.90
2017-12-14T04:37:28.592Z,18.50
2017-12-14T04:38:28.578Z,19.00
2017-12-14T04:39:28.577Z,18.60
2017-12-14T04:40:28.552Z,18.80
2017-12-14T04:41:28.564Z,18.80
2017-12-14T04:42:28.558Z,18.30
2017-12-14T04:43:28.553Z,21.60
2017-12-14T04:44:28.547Z,21.70
2017-12-14T04:45:28.539Z,21.30
2017-12-14T04:46:28.512Z,23.50
2017-12-14T04:47:28.511Z,20.70
2017-12-14T04:48:28.504Z,21.70
2017-12-14T04:49:28.598Z,20.60
2017-12-14T04:50:28.516Z,20.40
2017-12-14T04:51:28.504Z,20.00
2017-12-14T04:52:28.498Z,19.80
2017-12-14T04:53:28.490Z,20.60
2017-12-14T04:54:28.467Z,21.90
2017-12-14T04:55:28.457Z,20.90
2017-12-14T04:56:28.468Z,18.80
2017-12-14T04:57:28.466Z,18.30
2017-12-14T04:58:28.461Z,21.50
2017-12-14T04:59:28.437Z,23.60
2017-12-14T05:00:28.430Z,24.80
2017-12-14T05:01:28.420Z,25.80
2017-12-14T05:02:28.431Z,25.90
2017-12-14T05:03:28.413Z,23.70
2017-12-14T05:04:28.420Z,25.50
2017-12-14T05:05:28.412Z,23.90
2017-12-14T05:06:28.414Z,24.30
2017-12-14T05:07:28.389Z,23.60
2017-12-14T05:08:28.395Z,21.30
2017-12-14T05:09:28.370Z,24.80
2017-12-14T05:10:28.382Z,26.60
2017-12-14T05:11:28.358Z,23.80
2017-12-14T05:12:28.352Z,23.30
2017-12-14T05:13:28.363Z,24.10
2017-12-14T05:14:28.345Z,29.90
2017-12-14T05:15:28.334Z,25.30
2017-12-14T05:16:28.329Z,23.90
2017-12-14T05:17:28.321Z,24.50
2017-12-14T05:18:28.338Z,24.00
2017-12-14T05:19:28.314Z,27.80
2017-12-14T05:20:28.319Z,27.00
2017-12-14T05:21:28.295Z,28.10
2017-12-14T05:22:28.291Z,27.30
2017-12-14T05:23:28.285Z,26.30
2017-12-14T05:24:28.294Z,29.30
2017-12-14T05:25:28.291Z,27.80
2017-12-14T05:26:28.285Z,25.90
2017-12-14T05:27:28.279Z,25.60
2017-12-14T05:28:28.254Z,28.60
2017-12-14T05:29:28.246Z,25.60
2017-12-14T05:30:28.260Z,26.30
2017-12-14T05:31:28.354Z,25.40
2017-12-14T05:32:28.244Z,26.50
2017-12-14T05:33:28.237Z,28.60
2017-12-14T05:34:28.217Z,28.60
2017-12-14T05:35:28.229Z,26.80
2017-12-14T05:36:28.205Z,25.20
2017-12-14T05:37:28.212Z,26.90
2017-12-14T05:38:28.207Z,23.50
2017-12-14T05:39:28.201Z,24.10
2017-12-14T05:40:28.180Z,26.40
2017-12-14T05:41:28.187Z,28.30
2017-12-14T05:42:28.167Z,24.20
2017-12-14T05:43:28.276Z,28.50
2017-12-14T05:44:28.170Z,29.50
2017-12-14T05:45:28.147Z,30.10
2017-12-14T05:46:28.157Z,27.30
2017-12-14T05:47:28.151Z,29.30
2017-12-14T05:48:28.129Z,26.40
2017-12-14T05:49:28.138Z,26.20
2017-12-14T05:50:28.116Z,28.40
2017-12-14T05:51:28.130Z,27.90
2017-12-14T05:52:28.105Z,32.50
2017-12-14T05:53:28.096Z,25.30
2017-12-14T05:54:28.096Z,23.70
2017-12-14T05:55:28.200Z,27.30
2017-12-14T05:56:28.084Z,25.40
2017-12-14T05:57:28.086Z,29.20
2017-12-14T05:58:28.072Z,27.20
2017-12-14T05:59:28.079Z,29.20
2017-12-14T06:00:28.060Z,27.10
2017-12-14T06:01:28.067Z,25.00
2017-12-14T06:02:28.049Z,27.80
2017-12-14T06:03:28.039Z,25.20
2017-12-14T06:04:28.044Z,26.40
2017-12-14T06:05:28.027Z,30.90
2017-12-14T06:06:28.022Z,26.10
2017-12-14T06:07:28.130Z,25.80
2017-12-14T06:08:28.010Z,26.20
2017-12-14T06:09:28.061Z,24.00
2017-12-14T06:10:28.011Z,24.20
2017-12-14T06:11:28.005Z,25.90
2017-12-14T06:12:27.994Z,28.30
2017-12-14T06:13:27.988Z,24.80
2017-12-14T06:14:27.967Z,26.60
2017-12-14T06:15:27.960Z,29.50
2017-12-14T06:16:27.959Z,26.90
2017-12-14T06:17:27.948Z,27.60
2017-12-14T06:18:27.948Z,26.90
2017-12-14T06:19:28.096Z,26.50
2017-12-14T06:20:27.949Z,25.30
2017-12-14T06:21:27.938Z,28.60
2017-12-14T06:22:27.936Z,30.70
2017-12-14T06:23:27.930Z,27.90
2017-12-14T06:24:27.924Z,28.10
2017-12-14T06:25:27.915Z,26.70
2017-12-14T06:26:27.906Z,26.50
2017-12-14T06:27:27.900Z,26.80
2017-12-14T06:28:27.904Z,27.80
2017-12-14T06:29:27.892Z,26.70
2017-12-14T06:30:27.891Z,30.90
2017-12-14T06:31:27.869Z,28.10
2017-12-14T06:32:27.864Z,27.60
2017-12-14T06:33:27.857Z,26.70
2017-12-14T06:34:27.851Z,28.60
2017-12-14T06:35:27.834Z,28.40
2017-12-14T06:36:27.855Z,28.50
2017-12-14T06:37:27.849Z,28.90
2017-12-14T06:38:27.826Z,27.90
2017-12-14T06:39:27.835Z,28.30
2017-12-14T06:40:27.810Z,28.90
2017-12-14T06:41:27.821Z,29.30
2017-12-14T06:42:27.799Z,29.00
2017-12-14T06:43:27.809Z,27.70
2017-12-14T06:44:27.788Z,28.40
2017-12-14T06:45:27.795Z,28.00
2017-12-14T06:46:27.790Z,29.30
2017-12-14T06:47:27.767Z,29.80
2017-12-14T06:48:27.762Z,28.70
2017-12-14T06:49:27.844Z,27.30
2017-12-14T06:50:27.763Z,26.50
2017-12-14T06:51:27.747Z,27.00
2017-12-14T06:52:27.725Z,27.50
2017-12-14T06:53:27.718Z,28.50
2017-12-14T06:54:27.727Z,29.50
2017-12-14T06:55:27.720Z,27.50
2017-12-14T06:56:27.724Z,27.70
2017-12-14T06:57:27.716Z,27.00
2017-12-14T06:58:27.701Z,29.50
2017-12-14T06:59:27.694Z,28.80
2017-12-14T07:00:27.688Z,28.10
2017-12-14T07:01:27.785Z,29.00
2017-12-14T07:02:27.674Z,31.70
2017-12-14T07:03:27.672Z,27.10
2017-12-14T07:04:27.664Z,25.40
2017-12-14T07:05:27.655Z,26.80
2017-12-14T07:06:27.660Z,25.50
2017-12-14T07:07:27.654Z,24.30
2017-12-14T07:08:27.648Z,27.00
2017-12-14T07:09:27.629Z,28.40
2017-12-14T07:10:27.623Z,25.30
2017-12-14T07:11:27.626Z,26.20
2017-12-14T07:12:27.622Z,25.40
2017-12-14T07:13:27.619Z,25.70
2017-12-14T07:14:27.596Z,27.90
2017-12-14T07:15:27.591Z,27.70
2017-12-14T07:16:27.587Z,27.00
2017-12-14T07:17:27.580Z,26.50
2017-12-14T07:18:27.574Z,27.10
2017-12-14T07:19:27.674Z,27.00
2017-12-14T07:20:27.568Z,28.40
2017-12-14T07:21:27.563Z,27.00
2017-12-14T07:22:27.557Z,26.60
2017-12-14T07:23:27.539Z,27.20
2017-12-14T07:24:27.545Z,26.10
2017-12-14T07:25:27.535Z,25.10
2017-12-14T07:26:27.520Z,26.00
2017-12-14T07:27:27.516Z,25.00
2017-12-14T07:28:27.519Z,23.80
2017-12-14T07:29:27.503Z,23.80
2017-12-14T07:30:27.494Z,24.50
2017-12-14T07:31:27.597Z,23.80
2017-12-14T07:32:27.496Z,24.10
2017-12-14T07:33:27.524Z,24.70
2017-12-14T07:34:27.483Z,27.60
2017-12-14T07:35:27.470Z,27.90
2017-12-14T07:36:27.456Z,28.90
2017-12-14T07:37:27.449Z,28.10
2017-12-14T07:38:27.452Z,28.50
2017-12-14T07:39:27.447Z,28.70
2017-12-14T07:40:27.431Z,30.10
2017-12-14T07:41:27.409Z,31.90
2017-12-14T07:42:27.408Z,30.50
2017-12-14T07:43:27.396Z,30.30
2017-12-14T07:44:27.394Z,30.70
2017-12-14T07:45:27.402Z,30.40
2017-12-14T07:46:27.401Z,31.60
2017-12-14T07:47:27.374Z,32.50
2017-12-14T07:48:27.374Z,28.30
2017-12-14T07:49:27.371Z,29.10
2017-12-14T07:50:27.356Z,31.20
2017-12-14T07:51:27.354Z,28.50
2017-12-14T07:52:27.358Z,28.50
2017-12-14T07:53:27.329Z,27.60
2017-12-14T07:54:27.330Z,34.40
2017-12-14T07:55:27.328Z,29.40
2017-12-14T07:56:27.317Z,28.60
2017-12-14T07:57:27.331Z,30.60
2017-12-14T07:58:27.314Z,30.40
2017-12-14T07:59:27.312Z,28.30
2017-12-14T08:00:27.301Z,31.60
2017-12-14T08:01:27.278Z,29.40
2017-12-14T08:02:27.280Z,31.60
2017-12-14T08:03:27.266Z,35.60
2017-12-14T08:04:27.277Z,32.20
2017-12-14T08:05:27.270Z,29.00
2017-12-14T08:06:27.245Z,33.40
2017-12-14T08:07:27.266Z,31.90
2017-12-14T08:08:27.256Z,30.50
2017-12-14T08:09:27.232Z,29.70
2017-12-14T08:10:27.282Z,29.60
2017-12-14T08:11:27.231Z,30.20
2017-12-14T08:12:27.230Z,35.80
2017-12-14T08:13:27.327Z,31.60
2017-12-14T08:14:27.221Z,30.30
2017-12-14T08:15:27.205Z,28.30
2017-12-14T08:16:27.199Z,29.20
2017-12-14T08:17:27.201Z,30.20
2017-12-14T08:18:27.192Z,29.30
2017-12-14T08:19:27.185Z,30.80
2017-12-14T08:20:27.174Z,31.60
2017-12-14T08:21:27.167Z,32.10
2017-12-14T08:22:27.165Z,28.70
2017-12-14T08:23:27.158Z,27.90
2017-12-14T08:24:27.157Z,30.00
2017-12-14T08:25:27.245Z,29.10
2017-12-14T08:26:27.134Z,32.00
2017-12-14T08:27:27.133Z,30.30
2017-12-14T08:28:27.131Z,28.10
2017-12-14T08:29:27.124Z,27.90
2017-12-14T08:30:27.109Z,27.60
2017-12-14T08:31:27.102Z,30.50
2017-12-14T08:32:27.103Z,30.80
2017-12-14T08:33:27.095Z,29.10
2017-12-14T08:34:27.092Z,30.90
2017-12-14T08:35:27.082Z,31.10
2017-12-14T08:36:27.071Z,33.00
2017-12-14T08:37:27.071Z,30.30
2017-12-14T08:38:27.063Z,33.00
2017-12-14T08:39:27.051Z,30.00
2017-12-14T08:40:27.045Z,33.10
2017-12-14T08:41:27.034Z,34.20
2017-12-14T08:42:27.029Z,28.60
2017-12-14T08:43:27.032Z,30.20
2017-12-14T08:44:27.022Z,30.00
2017-12-14T08:45:27.017Z,31.90
2017-12-14T08:46:27.008Z,31.90
2017-12-14T08:47:26.997Z,29.90
2017-12-14T08:48:26.991Z,29.80
2017-12-14T08:49:27.086Z,32.20
2017-12-14T08:50:26.978Z,31.10
2017-12-14T08:51:26.974Z,33.90
2017-12-14T08:52:26.975Z,32.00
2017-12-14T08:53:26.968Z,33.30
2017-12-14T08:54:26.952Z,30.40
2017-12-14T08:55:26.956Z,30.90
2017-12-14T08:56:26.940Z,34.40
2017-12-14T08:57:26.941Z,32.30
2017-12-14T08:58:26.928Z,32.30
2017-12-14T08:59:26.928Z,32.80
2017-12-14T09:00:26.960Z,31.20
2017-12-14T09:01:26.920Z,31.40
2017-12-14T09:02:26.903Z,31.30
2017-12-14T09:03:26.899Z,33.30
2017-12-14T09:04:26.896Z,33.40
2017-12-14T09:05:26.890Z,31.70
2017-12-14T09:06:26.877Z,31.10
2017-12-14T09:07:26.871Z,32.70
2017-12-14T09:08:26.865Z,31.50
2017-12-14T09:09:26.866Z,31.10
2017-12-14T09:10:26.860Z,30.60
2017-12-14T09:11:26.832Z,30.20
2017-12-14T09:12:26.852Z,32.00
2017-12-14T09:13:26.884Z,30.80
2017-12-14T09:14:26.811Z,32.70
2017-12-14T09:15:26.816Z,35.50
2017-12-14T09:16:26.804Z,36.60
2017-12-14T09:17:26.810Z,32.50
2017-12-14T09:18:26.787Z,33.90
2017-12-14T09:19:26.798Z,33.00
2017-12-14T09:20:26.801Z,30.70
2017-12-14T09:21:26.782Z,29.10
2017-12-14T09:22:26.776Z,28.30
2017-12-14T09:23:26.765Z,33.00
2017-12-14T09:24:26.769Z,31.90
2017-12-14T09:25:26.862Z,30.70
2017-12-14T09:26:26.755Z,30.20
2017-12-14T09:27:26.729Z,31.20
2017-12-14T09:28:26.724Z,32.90
2017-12-14T09:29:26.732Z,29.30
2017-12-14T09:30:26.710Z,29.80
2017-12-14T09:31:26.714Z,29.10
2017-12-14T09:32:26.705Z,31.50
2017-12-14T09:33:26.713Z,33.00
2017-12-14T09:34:26.703Z,31.00
2017-12-14T09:35:26.696Z,30.70
2017-12-14T09:36:26.674Z,29.50
2017-12-14T09:37:26.684Z,31.20
2017-12-14T09:38:26.679Z,31.00
2017-12-14T09:39:26.657Z,30.00
2017-12-14T09:40:26.667Z,30.70
2017-12-14T09:41:26.646Z,28.90
2017-12-14T09:42:26.641Z,32.10
2017-12-14T09:43:26.634Z,31.30
2017-12-14T09:44:26.658Z,30.30
2017-12-14T09:45:26.644Z,30.90
2017-12-14T09:46:26.632Z,28.40
2017-12-14T09:47:26.627Z,29.90
2017-12-14T09:48:26.622Z,34.20
2017-12-14T09:49:26.615Z,33.60
2017-12-14T09:50:26.610Z,30.70
2017-12-14T09:51:26.605Z,33.50
2017-12-14T09:52:26.609Z,32.50
2017-12-14T09:53:26.593Z,31.70
2017-12-14T09:54:26.590Z,32.90
2017-12-14T09:55:26.591Z,34.00
2017-12-14T09:56:26.577Z,34.10
2017-12-14T09:57:26.580Z,35.30
2017-12-14T09:58:26.575Z,35.80
2017-12-14T09:59:26.569Z,37.60
2017-12-14T10:00:26.554Z,37.90
2017-12-14T10:01:26.547Z,35.80
2017-12-14T10:02:26.542Z,36.10
2017-12-14T10:03:26.537Z,37.90
2017-12-14T10:04:26.531Z,37.10
2017-12-14T10:05:26.526Z,39.30
2017-12-14T10:06:26.518Z,35.50
2017-12-14T10:07:26.513Z,36.30
2017-12-14T10:08:26.507Z,34.30
2017-12-14T10:09:26.514Z,36.90
2017-12-14T10:10:26.504Z,34.90
2017-12-14T10:11:26.489Z,47.50
2017-12-14T10:12:26.493Z,35.80
2017-12-14T10:13:26.478Z,35.90
2017-12-14T10:14:26.472Z,34.40
2017-12-14T10:15:26.478Z,36.60
2017-12-14T10:16:26.471Z,33.70
2017-12-14T10:17:26.455Z,32.00
2017-12-14T10:18:26.459Z,30.20
2017-12-14T10:19:26.557Z,35.00
2017-12-14T10:20:26.443Z,34.00
2017-12-14T10:21:26.428Z,32.10
2017-12-14T10:22:26.426Z,31.80
2017-12-14T10:23:26.417Z,36.10
2017-12-14T10:24:26.412Z,35.70
2017-12-14T10:25:26.491Z,37.50
2017-12-14T10:26:26.413Z,34.80
2017-12-14T10:27:26.417Z,36.20
2017-12-14T10:29:01.986Z,34.20
2017-12-14T10:30:01.946Z,37.80
2017-12-14T10:31:01.947Z,38.30
2017-12-14T10:32:01.919Z,38.00
2017-12-14T10:33:01.907Z,36.20
2017-12-14T10:34:01.912Z,37.00
2017-12-14T10:35:01.897Z,38.90
2017-12-14T10:36:02.142Z,35.70
2017-12-14T10:37:01.904Z,35.80
2017-12-14T10:38:01.891Z,35.90
2017-12-14T10:39:01.894Z,36.90
2017-12-14T10:40:01.871Z,37.10
2017-12-14T10:41:01.908Z,36.10
2017-12-14T10:42:01.904Z,35.40
2017-12-14T10:43:01.861Z,33.60
2017-12-14T10:44:01.904Z,34.40
2017-12-14T10:45:01.860Z,37.00
2017-12-14T10:46:01.860Z,39.00
2017-12-14T10:47:01.831Z,38.50
2017-12-14T10:48:01.843Z,37.90
2017-12-14T10:49:01.832Z,36.60
2017-12-14T10:50:01.829Z,37.80
2017-12-14T10:51:01.829Z,35.30
2017-12-14T10:52:01.812Z,35.80
2017-12-14T10:53:01.813Z,35.00
2017-12-14T10:54:01.822Z,40.40
2017-12-14T10:55:01.826Z,37.10
2017-12-14T10:56:01.814Z,36.20
2017-12-14T10:57:01.794Z,36.40
2017-12-14T10:58:01.791Z,37.70
2017-12-14T10:59:01.782Z,37.50
2017-12-14T11:00:01.790Z,38.70
2017-12-14T11:01:01.788Z,38.50
2017-12-14T11:02:01.764Z,34.30
2017-12-14T11:03:01.785Z,34.00
2017-12-14T11:04:01.780Z,35.60
2017-12-14T11:05:01.756Z,37.40
2017-12-14T11:06:01.764Z,34.30
2017-12-14T11:07:01.766Z,32.80
2017-12-14T11:08:01.754Z,33.90
2017-12-14T11:09:01.750Z,33.20
2017-12-14T11:10:01.750Z,38.00
2017-12-14T11:11:01.740Z,35.00
2017-12-14T11:12:01.745Z,34.00
2017-12-14T11:13:01.738Z,33.10
2017-12-14T11:14:01.739Z,35.70
2017-12-14T11:15:01.724Z,36.10
2017-12-14T11:16:01.730Z,37.00
2017-12-14T11:17:01.725Z,33.00
2017-12-14T11:18:01.723Z,34.00
2017-12-14T11:19:01.720Z,35.30
2017-12-14T11:20:01.705Z,35.70
2017-12-14T11:21:01.710Z,34.70
2017-12-14T11:22:01.696Z,34.20
2017-12-14T11:23:01.700Z,33.60
2017-12-14T11:24:01.698Z,32.70
2017-12-14T11:25:01.685Z,34.50
2017-12-14T11:26:01.681Z,35.90
2017-12-14T11:27:01.686Z,35.30
2017-12-14T11:28:01.680Z,33.60
2017-12-14T11:29:01.678Z,35.40
2017-12-14T11:30:01.871Z,34.30
2017-12-14T11:31:01.657Z,31.30
2017-12-14T11:32:01.663Z,35.00
2017-12-14T11:33:01.659Z,31.10
2017-12-14T11:34:01.647Z,32.30
2017-12-14T11:35:01.653Z,31.50
2017-12-14T11:36:01.651Z,31.10
2017-12-14T11:37:01.652Z,32.00
2017-12-14T11:38:01.646Z,31.70
2017-12-14T11:39:01.642Z,32.30
2017-12-14T11:40:01.638Z,33.80
2017-12-14T11:41:01.632Z,28.60
2017-12-14T11:42:01.622Z,29.40
2017-12-14T11:43:01.628Z,30.10
2017-12-14T11:44:01.625Z,29.50
2017-12-14T11:45:01.619Z,29.60
2017-12-14T11:46:01.620Z,29.80
2017-12-14T11:47:01.612Z,30.50
2017-12-14T11:48:01.613Z,29.80
2017-12-14T11:49:01.607Z,29.00
2017-12-14T11:50:01.596Z,30.10
2017-12-14T11:51:01.595Z,29.90
2017-12-14T11:52:01.605Z,31.30
2017-12-14T11:53:01.600Z,31.90
2017-12-14T11:54:01.596Z,31.00
2017-12-14T11:55:01.590Z,32.30
2017-12-14T11:56:01.592Z,30.70
2017-12-14T11:57:01.586Z,29.30
2017-12-14T11:58:01.730Z,29.10
2017-12-14T11:59:01.571Z,29.40
2017-12-14T12:00:01.581Z,28.70
2017-12-14T12:01:01.571Z,27.90
2017-12-14T12:02:01.569Z,27.70
2017-12-14T12:03:01.574Z,26.80
2017-12-14T12:04:01.568Z,27.50
2017-12-14T12:05:01.555Z,26.20
2017-12-14T12:06:01.551Z,26.90
2017-12-14T12:07:01.539Z,27.20
2017-12-14T12:08:01.547Z,30.30
2017-12-14T12:09:01.565Z,28.40
2017-12-14T12:10:01.563Z,29.00
2017-12-14T12:11:01.550Z,27.90
2017-12-14T12:12:01.558Z,25.90
2017-12-14T12:13:01.540Z,25.80
2017-12-14T12:14:01.544Z,25.30
2017-12-14T12:15:01.554Z,26.60
2017-12-14T12:16:01.523Z,25.10
2017-12-14T12:17:01.529Z,26.40
2017-12-14T12:18:01.529Z,29.80
2017-12-14T12:19:01.517Z,26.80
2017-12-14T12:20:01.515Z,24.20
2017-12-14T12:21:01.519Z,25.60
2017-12-14T12:22:01.523Z,27.00
2017-12-14T12:23:01.519Z,27.50
2017-12-14T12:24:01.514Z,26.10
2017-12-14T12:25:01.507Z,24.70
2017-12-14T12:26:01.507Z,26.30
2017-12-14T12:27:01.514Z,25.10
2017-12-14T12:28:01.504Z,23.90
2017-12-14T12:29:01.503Z,23.20
2017-12-14T12:30:01.508Z,21.90
2017-12-14T12:31:01.514Z,23.30
2017-12-14T12:32:01.507Z,20.70
2017-12-14T12:33:01.500Z,21.00
2017-12-14T12:34:01.505Z,22.20
2017-12-14T12:35:01.509Z,23.50
2017-12-14T12:36:01.507Z,23.10
2017-12-14T12:37:01.500Z,22.70
2017-12-14T12:38:01.497Z,19.50
2017-12-14T12:39:01.595Z,21.00
2017-12-14T12:40:01.499Z,22.30
2017-12-14T12:41:01.503Z,22.60
2017-12-14T12:42:01.494Z,21.30
2017-12-14T12:43:01.490Z,22.70
2017-12-14T12:44:01.500Z,21.00
2017-12-14T12:45:01.489Z,21.70
2017-12-14T12:46:01.490Z,23.70
2017-12-14T12:47:01.487Z,22.50
2017-12-14T12:48:01.488Z,22.80
2017-12-14T12:49:01.491Z,21.20
2017-12-14T12:50:01.487Z,22.00
2017-12-14T12:51:01.490Z,19.40
2017-12-14T12:52:01.491Z,21.40
2017-12-14T12:53:01.505Z,20.40